• Join FlightAware (Why Join?)
  • Login
  • US Flag 
02:58PM EDT


 

Airport Tracker/Info


-or-


 

Live Flight TrackerFlight Track Log ✈ N755HF ✈ 27-Apr-2012 ✈ N19 - 18AZ

Flight Track Log - Related Links

Times and Time Zones

All times are in EDT time to prevent confusion due to time zone crossing. See the N755HF flight status page for this flight to view local times or setup timezone preferences in your user account.

Time Position Orientation Groundspeed Altitude Reporting Facility
EDT Latitude Longitude Course Direction KTS MPH feet Rate Location/Type
06:24PM 36.5731 -108.4125 229° Southwest 189 217 15,100  Level Denver Center
06:25PM 36.5389 -108.4608 227° Southwest 189 217 16,100 1,080 Climbing Denver Center
06:26PM 36.5006 -108.5114 225° Southwest 189 217 17,300 1,080 Climbing Denver Center
06:27PM 36.4644 -108.5567 230° Southwest 184 212 18,300 900 Climbing Denver Center
06:28PM 36.4386 -108.5947 225° Southwest 184 212 19,200 840 Climbing Denver Center
06:29PM 36.4044 -108.6375 229° Southwest 184 212 20,000 360 Climbing Denver Center
06:30PM 36.3658 -108.6931 226° Southwest 195 224 20,000  Level Denver Center
06:31PM 36.3253 -108.7458 226° Southwest 206 237 20,000  Level Denver Center
06:32PM 36.2867 -108.7961 228° Southwest 218 251 20,000  Level Denver Center
06:33PM 36.2394 -108.8614 226° Southwest 218 251 20,000  Level Denver Center
06:34PM 36.1944 -108.9192 226° Southwest 228 262 20,000  Level Denver Center
06:35PM 36.1539 -108.9717 227° Southwest 240 276 20,000  Level Denver Center
06:36PM 36.1044 -109.0369 225° Southwest 240 276 20,000  Level Denver Center
06:37PM 36.0594 -109.0917 228° Southwest 235 270 20,000  Level Denver Center
06:38PM 36.0208 -109.1442 225° Southwest 235 270 20,000  Level Denver Center
06:40PM 35.9453 -109.2367 227° Southwest 219 252 20,000  Level Albuquerque Center
06:41PM 35.9028 -109.2922 227° Southwest 219 252 20,000  Level Albuquerque Center
06:42PM 35.8644 -109.3425 226° Southwest 224 258 20,000  Level Albuquerque Center
06:43PM 35.8194 -109.4003 226° Southwest 229 264 20,000  Level Albuquerque Center
06:44PM 35.7725 -109.4606 226° Southwest 229 264 20,000  Level Albuquerque Center
06:45PM 35.7300 -109.5156 226° Southwest 234 269 20,000  Level Albuquerque Center
06:46PM 35.6892 -109.5683 225° Southwest 234 269 20,000  Level Albuquerque Center
06:47PM 35.6403 -109.6283 228° Southwest 234 269 20,000  Level Albuquerque Center
06:48PM 35.5994 -109.6833 226° Southwest 234 269 20,000  Level Albuquerque Center
06:49PM 35.5544 -109.7408 227° Southwest 234 269 20,000  Level Albuquerque Center
06:50PM 35.5181 -109.7881 226° Southwest 234 269 20,000  Level Albuquerque Center
06:51PM 35.4711 -109.8478 226° Southwest 234 269 20,000  Level Albuquerque Center
06:52PM 35.4281 -109.9025 225° Southwest 234 269 20,000  Level Albuquerque Center
06:53PM 35.3831 -109.9572 225° Southwest 234 269 20,000  Level Albuquerque Center
06:54PM 35.3444 -110.0044 227° Southwest 234 269 20,000  Level Albuquerque Center
06:55PM 35.2994 -110.0639 234° Southwest 228 262 20,000  Level Albuquerque Center
06:56PM 35.2625 -110.1264 235° Southwest 222 255 20,000  Level Albuquerque Center
06:57PM 35.2278 -110.1861 236° Southwest 222 255 20,000  Level Albuquerque Center
06:58PM 35.1972 -110.2411 234° Southwest 222 255 20,000  Level Albuquerque Center
06:59PM 35.1558 -110.3106 234° Southwest 222 255 20,000  Level Albuquerque Center
07:00PM 35.1208 -110.3703 234° Southwest 222 255 20,000  Level Albuquerque Center
07:01PM 35.0883 -110.4250 234° Southwest 222 255 20,000  Level Albuquerque Center
07:02PM 35.0533 -110.4844 234° Southwest 227 261 20,000  Level Albuquerque Center
07:03PM 35.0139 -110.5517 237° Southwest 221 254 20,000  Level Albuquerque Center
07:04PM 34.9811 -110.6136 234° Southwest 221 254 20,000  Level Albuquerque Center
07:05PM 34.9483 -110.6681 225° Southwest 221 254 20,000 -180 Level Albuquerque Center
07:06PM 34.9028 -110.7244 227° Southwest 232 267 19,700 -420 Descending Albuquerque Center
07:07PM 34.8486 -110.7956 220° Southwest 251 289 19,200 -480 Descending Albuquerque Center
07:08PM 34.7969 -110.8492 223° Southwest 256 295 18,800 -480 Descending Albuquerque Center
07:09PM 34.7453 -110.9075 222° Southwest 256 295 18,300 -540 Descending Albuquerque Center
07:10PM 34.6936 -110.9633 223° Southwest 251 289 17,800 -540 Descending Albuquerque Center
07:11PM 34.6417 -111.0217 222° Southwest 251 289 17,300 -360 Descending Albuquerque Center
07:12PM 34.5878 -111.0797 221° Southwest 251 289 17,100 -360 Descending Albuquerque Center
07:13PM 34.5444 -111.1258 223° Southwest 251 289 16,600 -720 Descending Albuquerque Center
07:14PM 34.4861 -111.1911 221° Southwest 251 289 15,700 -720 Descending Albuquerque Center
07:15PM 34.4342 -111.2467 220° Southwest 251 289 15,200 -600 Descending Albuquerque Center
07:16PM 34.3803 -111.3019 223° Southwest 251 289 14,500 -780 Descending Albuquerque Center
07:17PM 34.3283 -111.3597 221° Southwest 251 289 13,700 -780 Descending Albuquerque Center
07:18PM 34.2742 -111.4175 221° Southwest 251 289 13,000 -720 Descending Albuquerque Center
07:19PM 34.2200 -111.4750 221° Southwest 251 289 12,300 -780 Descending Albuquerque Center
07:20PM 34.1594 -111.5397 221° Southwest 256 295 11,500 -840 Descending Albuquerque Center
07:21PM 34.1053 -111.5972 221° Southwest 256 295 10,700 -960 Descending Albuquerque Center
07:22PM 34.0508 -111.6547 207° Southwest 256 295 9,600 -1,200 Descending Albuquerque Center
07:23PM 33.9869 -111.6939 210° Southwest 262 302 8,400 -1,200 Descending Albuquerque Center
07:24PM 33.9333 -111.7311 205° Southwest 262 302 7,200 -1,320 Descending Albuquerque Center
07:25PM 33.8758 -111.7633 231° Southwest 250 288 5,800 -1,200 Descending Albuquerque Center
07:26PM 33.8450 -111.8092 245° Southwest 217 250 4,800 -1,020 Descending Albuquerque Center
07:33PM 33.8167 -111.8833 277° West  Level FlightAware Approximate
07:34PM 33.8237 -111.9552 97° East  Level Estimated
07:35PM 33.8167 -111.8833 97° East  Level FlightAware Approximate